createdAt,value
2018-06-29T00:00:08.906Z,4.40
2018-06-29T00:02:37.840Z,4.10
2018-06-29T00:05:07.876Z,4.47
2018-06-29T00:07:36.845Z,4.20
2018-06-29T00:10:05.913Z,4.20
2018-06-29T00:12:34.897Z,4.60
2018-06-29T00:15:03.955Z,4.90
2018-06-29T00:17:32.915Z,4.60
2018-06-29T00:20:01.887Z,4.22
2018-06-29T00:22:30.794Z,4.67
2018-06-29T00:24:59.706Z,4.00
2018-06-29T00:27:28.602Z,4.83
2018-06-29T00:29:57.545Z,4.37
2018-06-29T00:32:26.652Z,4.67
2018-06-29T00:34:55.341Z,5.25
2018-06-29T00:37:24.509Z,4.53
2018-06-29T00:39:53.266Z,4.60
2018-06-29T00:42:22.034Z,5.30
2018-06-29T00:44:51.067Z,4.47
2018-06-29T00:47:20.006Z,4.25
2018-06-29T00:49:48.934Z,4.90
2018-06-29T00:52:17.867Z,4.80
2018-06-29T00:54:46.939Z,5.08
2018-06-29T00:57:15.957Z,4.15
2018-06-29T00:59:44.866Z,4.78
2018-06-29T01:02:13.758Z,4.90
2018-06-29T01:04:42.650Z,4.55
2018-06-29T01:07:11.625Z,4.50
2018-06-29T01:09:40.578Z,4.90
2018-06-29T01:12:09.495Z,4.50
2018-06-29T01:14:38.399Z,4.50
2018-06-29T01:17:07.354Z,4.45
2018-06-29T01:19:36.229Z,4.50
2018-06-29T01:22:05.146Z,4.60
2018-06-29T01:24:34.033Z,4.97
2018-06-29T01:27:02.990Z,4.90
2018-06-29T01:29:31.930Z,5.62
2018-06-29T01:32:00.848Z,5.78
2018-06-29T01:34:29.855Z,5.25
2018-06-29T01:36:58.809Z,5.30
2018-06-29T01:39:27.668Z,6.33
2018-06-29T01:41:56.650Z,5.90
2018-06-29T01:44:25.499Z,6.12
2018-06-29T01:46:54.690Z,7.25
2018-06-29T01:49:23.671Z,7.03
2018-06-29T01:51:52.678Z,6.25
2018-06-29T01:54:21.666Z,6.85
2018-06-29T01:56:50.601Z,6.15
2018-06-29T01:59:19.805Z,5.95
2018-06-29T02:01:49.060Z,6.55
2018-06-29T02:04:18.262Z,6.67
2018-06-29T02:06:47.649Z,6.40
2018-06-29T02:09:16.581Z,6.20
2018-06-29T02:11:45.476Z,6.75
2018-06-29T02:14:14.442Z,6.87
2018-06-29T02:16:43.350Z,8.13
2018-06-29T02:19:12.236Z,7.65
2018-06-29T02:21:41.147Z,6.50
2018-06-29T02:24:10.039Z,7.90
2018-06-29T02:26:38.913Z,7.60
2018-06-29T02:29:07.827Z,8.55
2018-06-29T02:31:36.702Z,7.65
2018-06-29T02:34:05.591Z,8.05
2018-06-29T02:36:34.481Z,7.53
2018-06-29T02:39:03.498Z,7.75
2018-06-29T02:41:32.409Z,7.40
2018-06-29T02:44:01.422Z,7.85
2018-06-29T02:46:30.359Z,7.50
2018-06-29T02:48:59.277Z,7.30
2018-06-29T02:51:28.326Z,7.67
2018-06-29T02:53:57.241Z,7.67
2018-06-29T02:56:26.166Z,7.80
2018-06-29T02:58:55.064Z,8.10
2018-06-29T03:01:23.998Z,7.85
2018-06-29T03:03:52.911Z,8.30
2018-06-29T03:06:21.875Z,8.23
2018-06-29T03:08:50.871Z,8.60
2018-06-29T03:11:19.791Z,7.80
2018-06-29T03:13:48.761Z,8.80
2018-06-29T03:16:17.710Z,8.90
2018-06-29T03:18:46.654Z,9.35
2018-06-29T03:21:15.534Z,8.45
2018-06-29T03:23:44.487Z,9.53
2018-06-29T03:26:13.379Z,8.75
2018-06-29T03:28:42.384Z,7.30
2018-06-29T03:31:11.358Z,9.43
2018-06-29T03:33:40.278Z,8.90
2018-06-29T03:36:09.162Z,8.78
2018-06-29T03:38:38.065Z,9.20
2018-06-29T03:41:07.189Z,9.23
2018-06-29T03:43:36.069Z,8.70
2018-06-29T03:46:04.662Z,9.08
2018-06-29T03:48:33.514Z,9.70
2018-06-29T03:51:02.396Z,9.20
2018-06-29T03:53:31.442Z,8.83
2018-06-29T03:56:00.350Z,10.00
2018-06-29T03:58:29.255Z,9.10
2018-06-29T04:00:58.978Z,9.38
2018-06-29T04:03:27.889Z,9.73
2018-06-29T04:05:56.809Z,10.90
2018-06-29T04:08:25.706Z,10.10
2018-06-29T04:10:54.627Z,9.60
2018-06-29T04:13:23.710Z,10.15
2018-06-29T04:15:52.725Z,10.18
2018-06-29T04:18:21.658Z,10.10
2018-06-29T04:20:50.591Z,11.60
2018-06-29T04:23:19.553Z,10.08
2018-06-29T04:25:48.678Z,10.78
2018-06-29T04:28:17.707Z,12.18
2018-06-29T04:30:46.659Z,10.75
2018-06-29T04:33:15.606Z,11.05
2018-06-29T04:35:44.650Z,11.70
2018-06-29T04:38:14.596Z,11.12
2018-06-29T04:40:43.514Z,10.23
2018-06-29T04:43:12.686Z,10.90
2018-06-29T04:45:41.590Z,10.55
2018-06-29T04:48:10.613Z,10.00
2018-06-29T04:50:39.715Z,11.28
2018-06-29T04:53:08.667Z,11.63
2018-06-29T04:55:37.566Z,11.25
2018-06-29T04:58:06.616Z,11.40
2018-06-29T05:00:35.530Z,11.10
2018-06-29T05:03:04.448Z,9.28
2018-06-29T05:05:33.373Z,11.12
2018-06-29T05:08:02.349Z,11.25
2018-06-29T05:10:31.598Z,11.20
2018-06-29T05:13:00.522Z,10.60
2018-06-29T05:15:29.573Z,10.75
2018-06-29T05:17:58.451Z,10.25
2018-06-29T05:20:27.363Z,11.55
2018-06-29T05:22:56.373Z,11.08
2018-06-29T05:25:25.265Z,11.05
2018-06-29T05:27:54.194Z,11.15
2018-06-29T05:30:23.163Z,11.80
2018-06-29T05:32:52.143Z,9.90
2018-06-29T05:35:21.262Z,10.18
2018-06-29T05:37:50.195Z,10.80
2018-06-29T05:40:19.273Z,10.82
2018-06-29T05:42:47.897Z,9.48
2018-06-29T05:45:16.754Z,10.13
2018-06-29T05:47:45.647Z,9.25
2018-06-29T05:50:14.565Z,9.53
2018-06-29T05:52:43.482Z,9.30
2018-06-29T05:55:12.106Z,9.58
2018-06-29T05:57:40.904Z,10.00
2018-06-29T06:00:09.958Z,9.30
2018-06-29T06:02:39.010Z,9.65
2018-06-29T06:05:07.936Z,10.00
2018-06-29T06:07:36.810Z,9.35
2018-06-29T06:10:06.132Z,11.00
2018-06-29T06:12:35.030Z,9.88
2018-06-29T06:15:03.990Z,10.70
2018-06-29T06:17:32.842Z,9.70
2018-06-29T06:20:05.622Z,9.33
2018-06-29T06:22:34.888Z,8.93
2018-06-29T06:25:03.862Z,8.60
2018-06-29T06:27:32.838Z,7.62
2018-06-29T06:30:01.755Z,8.90
2018-06-29T06:32:30.662Z,8.35
2018-06-29T06:34:59.581Z,9.25
2018-06-29T06:37:28.453Z,8.25
2018-06-29T06:39:57.073Z,8.45
2018-06-29T06:42:25.862Z,8.65
2018-06-29T06:44:54.774Z,8.30
2018-06-29T06:47:23.686Z,6.85
2018-06-29T06:49:52.738Z,8.10
2018-06-29T06:52:21.710Z,7.20
2018-06-29T06:54:50.842Z,7.70
2018-06-29T06:57:20.082Z,6.70
2018-06-29T06:59:49.044Z,7.45
2018-06-29T07:02:17.966Z,7.25
2018-06-29T07:04:46.938Z,7.17
2018-06-29T07:07:15.826Z,6.55
2018-06-29T07:09:44.422Z,5.78
2018-06-29T07:12:13.298Z,7.30
2018-06-29T07:14:42.246Z,6.45
2018-06-29T07:17:11.238Z,6.17
2018-06-29T07:19:40.142Z,6.55
2018-06-29T07:22:09.054Z,6.03
2018-06-29T07:24:38.069Z,5.67
2018-06-29T07:27:06.978Z,7.10
2018-06-29T07:29:35.909Z,7.10
2018-06-29T07:32:04.842Z,5.67
2018-06-29T07:34:33.778Z,5.80
2018-06-29T07:37:02.701Z,5.58
2018-06-29T07:39:32.289Z,5.55
2018-06-29T07:42:01.175Z,5.30
2018-06-29T07:44:30.136Z,5.22
2018-06-29T07:46:59.006Z,5.10
2018-06-29T07:49:27.977Z,4.35
2018-06-29T07:51:56.942Z,4.60
2018-06-29T07:54:25.847Z,4.22
2018-06-29T07:56:54.752Z,4.40
2018-06-29T07:59:23.694Z,4.58
2018-06-29T08:01:52.626Z,4.83
2018-06-29T08:04:21.555Z,4.87
2018-06-29T08:06:50.506Z,4.20
2018-06-29T08:09:19.462Z,4.33
2018-06-29T08:11:48.359Z,4.20
2018-06-29T08:14:17.267Z,4.15
2018-06-29T08:16:46.231Z,3.67
2018-06-29T08:19:15.093Z,4.33
2018-06-29T08:21:43.997Z,4.60
2018-06-29T08:24:12.930Z,4.50
2018-06-29T08:26:41.864Z,4.30
2018-06-29T08:29:10.793Z,4.00
2018-06-29T08:31:39.773Z,4.15
2018-06-29T08:34:08.706Z,4.60
2018-06-29T08:36:37.615Z,4.50
2018-06-29T08:39:08.396Z,4.00
2018-06-29T08:41:37.334Z,3.72
2018-06-29T08:44:06.356Z,3.83
2018-06-29T08:46:35.423Z,4.03
2018-06-29T08:49:04.314Z,3.65
2018-06-29T08:51:33.427Z,3.90
2018-06-29T08:54:02.407Z,4.20
2018-06-29T08:56:31.396Z,3.70
2018-06-29T08:59:00.263Z,4.00
2018-06-29T09:01:29.304Z,3.60
2018-06-29T09:03:58.190Z,3.70
2018-06-29T09:06:27.106Z,3.93
2018-06-29T09:08:55.997Z,3.60
2018-06-29T09:11:24.896Z,3.77
2018-06-29T09:13:53.481Z,3.80
2018-06-29T09:16:22.510Z,4.03
2018-06-29T09:18:51.424Z,3.60
2018-06-29T09:21:20.370Z,3.83
2018-06-29T09:23:49.369Z,4.00
2018-06-29T09:26:18.382Z,3.90
2018-06-29T09:28:47.270Z,4.10
2018-06-29T09:31:16.333Z,3.80
2018-06-29T09:33:45.313Z,3.53
2018-06-29T09:36:14.478Z,4.40
2018-06-29T09:38:43.417Z,3.63
2018-06-29T09:41:12.430Z,3.87
2018-06-29T09:43:41.374Z,4.13
2018-06-29T09:46:10.275Z,3.70
2018-06-29T09:48:39.145Z,3.30
2018-06-29T09:51:08.072Z,3.77
2018-06-29T09:53:36.930Z,4.33
2018-06-29T09:56:05.845Z,4.20
2018-06-29T09:58:34.730Z,3.40
2018-06-29T10:01:03.667Z,3.77
2018-06-29T10:03:32.519Z,4.70
2018-06-29T10:06:01.558Z,4.23
2018-06-29T10:08:30.537Z,4.87
2018-06-29T10:10:59.474Z,4.00
2018-06-29T10:13:28.445Z,4.43
2018-06-29T10:15:57.400Z,3.80
2018-06-29T10:18:26.307Z,4.20
2018-06-29T10:20:55.224Z,3.80
2018-06-29T10:23:24.315Z,3.90
2018-06-29T10:25:53.339Z,4.20
2018-06-29T10:28:22.338Z,3.47
2018-06-29T10:30:51.328Z,4.30
2018-06-29T10:33:20.346Z,3.50
2018-06-29T10:35:49.247Z,3.20
2018-06-29T10:38:18.148Z,3.60
2018-06-29T10:40:47.071Z,3.33
2018-06-29T10:43:16.007Z,3.80
2018-06-29T10:45:44.906Z,3.30
2018-06-29T10:48:13.782Z,3.53
2018-06-29T10:50:42.673Z,3.83
2018-06-29T10:53:11.563Z,4.00
2018-06-29T10:55:40.464Z,3.90
2018-06-29T10:58:09.474Z,3.37
2018-06-29T11:00:38.363Z,3.63
2018-06-29T11:03:07.482Z,3.50
2018-06-29T11:05:36.546Z,3.33
2018-06-29T11:08:05.550Z,3.00
2018-06-29T11:10:34.506Z,3.53
2018-06-29T11:13:03.395Z,3.83
2018-06-29T11:15:33.188Z,2.97
2018-06-29T11:18:02.944Z,3.40
2018-06-29T11:20:32.117Z,3.67
2018-06-29T11:23:01.743Z,3.37
2018-06-29T11:25:30.354Z,3.03
2018-06-29T11:27:59.180Z,3.57
2018-06-29T11:30:28.170Z,4.10
2018-06-29T11:32:57.098Z,3.50
2018-06-29T11:35:26.027Z,3.70
2018-06-29T11:37:55.128Z,3.30
2018-06-29T11:40:24.071Z,3.47
2018-06-29T11:42:52.994Z,3.37
2018-06-29T11:45:21.963Z,3.27
2018-06-29T11:47:50.893Z,3.50
2018-06-29T11:50:19.798Z,3.93
2018-06-29T11:52:48.689Z,3.70
2018-06-29T11:55:17.638Z,3.37
2018-06-29T11:57:46.538Z,3.80
2018-06-29T12:00:15.416Z,3.47
2018-06-29T12:02:44.322Z,3.23
2018-06-29T12:05:13.311Z,3.37
2018-06-29T12:07:42.226Z,3.47
2018-06-29T12:10:11.191Z,3.50
2018-06-29T12:12:40.098Z,3.43
2018-06-29T12:15:09.005Z,3.97
2018-06-29T12:17:37.933Z,3.40
2018-06-29T12:20:07.026Z,3.30
2018-06-29T12:22:36.121Z,3.27
2018-06-29T12:25:05.270Z,3.80
2018-06-29T12:27:34.400Z,3.50
2018-06-29T12:30:03.520Z,3.70
2018-06-29T12:32:32.508Z,3.60
2018-06-29T12:35:01.376Z,3.00
2018-06-29T12:37:30.584Z,3.40
2018-06-29T12:40:00.202Z,3.40
2018-06-29T12:42:29.334Z,3.30
2018-06-29T12:44:58.282Z,3.43
2018-06-29T12:47:27.290Z,3.07
2018-06-29T12:49:56.210Z,3.50
2018-06-29T12:52:25.311Z,3.50
2018-06-29T12:54:54.190Z,3.60
2018-06-29T12:57:23.177Z,3.10
2018-06-29T12:59:52.048Z,3.50
2018-06-29T13:02:21.035Z,3.23
2018-06-29T13:04:49.936Z,3.10
2018-06-29T13:07:19.052Z,2.87
2018-06-29T13:09:47.993Z,3.33
2018-06-29T13:12:16.915Z,3.40
2018-06-29T13:14:45.813Z,4.03
2018-06-29T13:17:14.721Z,3.40
2018-06-29T13:19:43.614Z,4.23
2018-06-29T13:22:12.675Z,3.40
2018-06-29T13:24:41.558Z,3.43
2018-06-29T13:27:10.457Z,3.30
2018-06-29T13:29:39.333Z,3.70
2018-06-29T13:32:08.249Z,3.67
2018-06-29T13:34:37.278Z,3.20
2018-06-29T13:37:06.198Z,3.10
2018-06-29T13:39:35.093Z,3.47
2018-06-29T13:42:03.990Z,2.80
2018-06-29T13:44:32.900Z,3.67
2018-06-29T13:47:01.819Z,2.73
2018-06-29T13:49:30.694Z,3.73
2018-06-29T13:51:59.586Z,2.90
2018-06-29T13:54:28.465Z,2.93
2018-06-29T13:56:57.506Z,3.60
2018-06-29T13:59:26.418Z,3.10
2018-06-29T14:01:55.462Z,2.90
2018-06-29T14:04:24.342Z,2.90
2018-06-29T14:06:53.394Z,3.53
2018-06-29T14:09:22.278Z,3.37
2018-06-29T14:11:51.326Z,3.10
2018-06-29T14:14:20.295Z,3.20
2018-06-29T14:16:49.179Z,3.73
2018-06-29T14:19:18.073Z,3.73
2018-06-29T14:21:47.431Z,2.87
2018-06-29T14:24:16.342Z,3.20
2018-06-29T14:26:45.218Z,2.80
2018-06-29T14:29:13.826Z,3.10
2018-06-29T14:31:42.630Z,3.13
2018-06-29T14:34:11.534Z,3.40
2018-06-29T14:36:40.490Z,3.30
2018-06-29T14:39:10.621Z,2.70
2018-06-29T14:41:39.573Z,3.20
2018-06-29T14:44:09.184Z,3.27
2018-06-29T14:46:39.002Z,2.80
2018-06-29T14:49:08.482Z,3.30
2018-06-29T14:51:37.430Z,2.87
2018-06-29T14:54:06.370Z,3.53
2018-06-29T14:56:35.334Z,3.00
2018-06-29T14:59:04.271Z,3.50
2018-06-29T15:01:33.243Z,3.30
2018-06-29T15:04:02.303Z,3.10
2018-06-29T15:06:31.669Z,3.10
2018-06-29T15:09:00.613Z,2.87
2018-06-29T15:11:29.509Z,3.30
2018-06-29T15:13:58.375Z,3.17
2018-06-29T15:16:27.355Z,3.27
2018-06-29T15:18:56.290Z,2.70
2018-06-29T15:21:25.292Z,2.67
2018-06-29T15:23:54.259Z,3.30
2018-06-29T15:26:23.230Z,3.10
2018-06-29T15:28:52.153Z,2.70
2018-06-29T15:31:21.247Z,2.93
2018-06-29T15:33:50.071Z,3.03
2018-06-29T15:36:18.969Z,3.47
2018-06-29T15:38:47.961Z,2.70
2018-06-29T15:41:16.873Z,3.13
2018-06-29T15:43:45.786Z,2.93
2018-06-29T15:46:14.730Z,2.77
2018-06-29T15:48:43.650Z,2.40
2018-06-29T15:51:12.563Z,3.00
2018-06-29T15:53:41.502Z,2.57
2018-06-29T15:56:10.542Z,2.90
2018-06-29T15:58:39.449Z,2.93
2018-06-29T16:01:08.442Z,2.53
2018-06-29T16:03:37.386Z,2.47
2018-06-29T16:06:06.701Z,2.80
2018-06-29T16:08:35.328Z,2.90
2018-06-29T16:11:04.170Z,2.67
2018-06-29T16:13:33.094Z,2.80
2018-06-29T16:16:02.135Z,2.60
2018-06-29T16:18:31.149Z,3.20
2018-06-29T16:21:00.214Z,2.80
2018-06-29T16:23:29.166Z,2.67
2018-06-29T16:25:58.066Z,2.50
2018-06-29T16:28:27.013Z,3.10
2018-06-29T16:30:55.906Z,2.43
2018-06-29T16:33:24.826Z,2.60
2018-06-29T16:35:53.758Z,2.50
2018-06-29T16:38:22.734Z,2.53
2018-06-29T16:40:51.850Z,2.10
2018-06-29T16:43:20.770Z,2.33
2018-06-29T16:45:49.695Z,2.50
2018-06-29T16:48:18.387Z,2.90
2018-06-29T16:50:47.257Z,2.37
2018-06-29T16:53:16.260Z,2.63
2018-06-29T16:55:45.312Z,2.80
2018-06-29T16:58:14.404Z,2.70
2018-06-29T17:00:43.322Z,2.30
2018-06-29T17:03:12.232Z,2.20
2018-06-29T17:05:41.269Z,2.13
2018-06-29T17:08:10.416Z,2.67
2018-06-29T17:10:39.298Z,2.20
2018-06-29T17:13:08.218Z,2.20
2018-06-29T17:15:37.162Z,2.90
2018-06-29T17:18:06.139Z,3.50
2018-06-29T17:20:35.012Z,2.60
2018-06-29T17:23:03.937Z,2.73
2018-06-29T17:25:32.837Z,2.20
2018-06-29T17:28:01.780Z,2.57
2018-06-29T17:30:30.650Z,2.90
2018-06-29T17:32:59.550Z,2.60
2018-06-29T17:35:28.729Z,2.40
2018-06-29T17:37:57.665Z,2.37
2018-06-29T17:40:26.569Z,2.67
2018-06-29T17:42:55.562Z,2.50
2018-06-29T17:45:24.483Z,2.90
2018-06-29T17:47:53.691Z,2.90
2018-06-29T17:50:22.628Z,2.30
2018-06-29T17:52:51.601Z,2.90
2018-06-29T17:55:20.554Z,2.50
2018-06-29T17:57:49.526Z,3.33
2018-06-29T18:00:18.724Z,2.40
2018-06-29T18:02:47.832Z,2.80
2018-06-29T18:05:17.361Z,2.40
2018-06-29T18:07:46.301Z,2.87
2018-06-29T18:10:15.222Z,2.73
2018-06-29T18:12:44.215Z,2.87
2018-06-29T18:15:13.087Z,2.30
2018-06-29T18:17:42.046Z,2.33
2018-06-29T18:20:11.015Z,2.83
2018-06-29T18:22:39.910Z,3.40
2018-06-29T18:25:08.858Z,3.03
2018-06-29T18:27:37.823Z,3.10
2018-06-29T18:30:07.548Z,2.90
2018-06-29T18:32:36.492Z,3.20
2018-06-29T18:35:05.678Z,3.27
2018-06-29T18:37:34.657Z,2.60
2018-06-29T18:40:03.653Z,3.03
2018-06-29T18:42:32.578Z,2.73
2018-06-29T18:45:01.468Z,2.87
2018-06-29T18:47:30.130Z,4.40
2018-06-29T18:49:58.942Z,3.60
2018-06-29T18:52:28.509Z,3.30
2018-06-29T18:54:57.410Z,2.53
2018-06-29T18:57:26.345Z,2.77
2018-06-29T18:59:55.396Z,3.33
2018-06-29T19:02:24.027Z,3.30
2018-06-29T19:04:52.985Z,5.33
2018-06-29T19:07:22.058Z,3.00
2018-06-29T19:09:50.965Z,3.60
2018-06-29T19:12:20.004Z,3.27
2018-06-29T19:14:49.502Z,3.40
2018-06-29T19:17:18.402Z,3.10
2018-06-29T19:19:47.338Z,3.00
2018-06-29T19:22:16.480Z,4.40
2018-06-29T19:24:45.118Z,3.27
2018-06-29T19:27:14.002Z,3.87
2018-06-29T19:29:42.906Z,4.20
2018-06-29T19:32:11.810Z,3.27
2018-06-29T19:34:40.721Z,3.20
2018-06-29T19:37:09.698Z,3.47
2018-06-29T19:39:38.662Z,3.77
2018-06-29T19:42:07.504Z,3.43
2018-06-29T19:44:36.134Z,3.53
2018-06-29T19:47:04.934Z,3.70
2018-06-29T19:49:33.870Z,3.80
2018-06-29T19:52:02.952Z,3.13
2018-06-29T19:54:31.881Z,3.40
2018-06-29T19:57:00.815Z,3.40
2018-06-29T19:59:29.766Z,3.23
2018-06-29T20:01:58.981Z,3.80
2018-06-29T20:04:27.942Z,3.83
2018-06-29T20:06:56.954Z,3.33
2018-06-29T20:09:26.014Z,3.63
2018-06-29T20:11:54.886Z,4.03
2018-06-29T20:14:23.846Z,4.23
2018-06-29T20:16:52.910Z,3.63
2018-06-29T20:19:21.809Z,3.70
2018-06-29T20:21:50.780Z,4.10
2018-06-29T20:24:19.370Z,4.50
2018-06-29T20:26:48.303Z,4.97
2018-06-29T20:29:17.202Z,4.70
2018-06-29T20:31:46.746Z,4.60
2018-06-29T20:34:15.677Z,4.60
2018-06-29T20:36:44.743Z,4.40
2018-06-29T20:39:13.929Z,5.22
2018-06-29T20:41:42.818Z,4.27
2018-06-29T20:44:11.798Z,4.60
2018-06-29T20:46:40.784Z,4.70
2018-06-29T20:49:09.671Z,4.40
2018-06-29T20:51:38.574Z,5.03
2018-06-29T20:54:07.486Z,5.13
2018-06-29T20:56:36.353Z,4.87
2018-06-29T20:59:05.350Z,5.40
2018-06-29T21:01:33.993Z,4.80
2018-06-29T21:04:02.827Z,4.17
2018-06-29T21:06:31.738Z,5.20
2018-06-29T21:09:00.642Z,4.80
2018-06-29T21:11:29.546Z,5.10
2018-06-29T21:13:58.446Z,4.62
2018-06-29T21:16:27.526Z,5.33
2018-06-29T21:18:56.474Z,5.00
2018-06-29T21:21:25.369Z,4.50
2018-06-29T21:23:54.298Z,4.80
2018-06-29T21:26:23.246Z,4.78
2018-06-29T21:28:52.360Z,5.58
2018-06-29T21:31:21.334Z,4.83
2018-06-29T21:33:50.353Z,4.95
2018-06-29T21:36:19.382Z,5.60
2018-06-29T21:38:48.298Z,5.15
2018-06-29T21:41:17.238Z,4.83
2018-06-29T21:43:46.198Z,5.30
2018-06-29T21:46:15.194Z,4.87
2018-06-29T21:48:44.093Z,5.58
2018-06-29T21:51:12.969Z,5.28
2018-06-29T21:53:41.891Z,5.00
2018-06-29T21:56:10.878Z,4.83
2018-06-29T21:58:39.820Z,5.30
2018-06-29T22:01:08.756Z,5.30
2018-06-29T22:03:37.727Z,5.47
2018-06-29T22:06:06.672Z,5.30
2018-06-29T22:08:35.631Z,4.80
2018-06-29T22:11:04.547Z,5.10
2018-06-29T22:13:33.451Z,4.90
2018-06-29T22:16:02.350Z,4.58
2018-06-29T22:18:31.270Z,5.15
2018-06-29T22:21:00.172Z,5.25
2018-06-29T22:23:29.122Z,5.30
2018-06-29T22:25:58.057Z,5.12
2018-06-29T22:28:26.957Z,5.30
2018-06-29T22:30:55.847Z,5.25
2018-06-29T22:33:24.750Z,5.55
2018-06-29T22:35:53.774Z,5.53
2018-06-29T22:38:22.658Z,5.30
2018-06-29T22:40:51.802Z,5.55
2018-06-29T22:43:20.754Z,5.70
2018-06-29T22:45:49.735Z,5.37
2018-06-29T22:48:18.664Z,5.83
2018-06-29T22:50:47.563Z,5.45
2018-06-29T22:53:16.547Z,5.33
2018-06-29T22:55:45.522Z,5.50
2018-06-29T22:58:14.457Z,5.55
2018-06-29T23:00:43.390Z,5.40
2018-06-29T23:03:13.162Z,5.00
2018-06-29T23:05:42.120Z,5.70
2018-06-29T23:08:11.687Z,5.83
2018-06-29T23:10:40.610Z,5.45
2018-06-29T23:13:10.007Z,5.17
2018-06-29T23:15:38.922Z,5.78
2018-06-29T23:18:07.917Z,4.75
2018-06-29T23:20:36.841Z,5.37
2018-06-29T23:23:06.435Z,5.60
2018-06-29T23:25:35.342Z,5.53
2018-06-29T23:28:04.298Z,6.08
2018-06-29T23:30:33.226Z,6.22
2018-06-29T23:33:02.107Z,5.45
2018-06-29T23:35:31.089Z,5.65
2018-06-29T23:38:00.035Z,6.62
2018-06-29T23:40:28.994Z,5.83
2018-06-29T23:42:57.918Z,6.30
2018-06-29T23:45:26.841Z,6.65
2018-06-29T23:47:55.757Z,6.30
2018-06-29T23:50:24.658Z,6.12
2018-06-29T23:52:53.566Z,6.10
2018-06-29T23:55:22.530Z,6.72
2018-06-29T23:57:51.546Z,6.25
